sensor_id;sensor_type;location;lat;lon;timestamp;P1;durP1;ratioP1;P2;durP2;ratioP2
76566;SDS011;65428;53.194;6.132;2023-04-08T00:00:43;8.05;;;6.68;;
76566;SDS011;65428;53.194;6.132;2023-04-08T00:03:10;7.47;;;6.30;;
76566;SDS011;65428;53.194;6.132;2023-04-08T00:05:35;7.68;;;6.68;;
76566;SDS011;65428;53.194;6.132;2023-04-08T00:08:01;7.73;;;6.17;;
76566;SDS011;65428;53.194;6.132;2023-04-08T00:10:29;7.20;;;6.13;;
76566;SDS011;65428;53.194;6.132;2023-04-08T00:12:55;7.63;;;6.83;;
76566;SDS011;65428;53.194;6.132;2023-04-08T00:15:20;8.20;;;6.93;;
76566;SDS011;65428;53.194;6.132;2023-04-08T00:17:46;6.88;;;6.18;;
76566;SDS011;65428;53.194;6.132;2023-04-08T00:20:12;7.30;;;6.25;;
76566;SDS011;65428;53.194;6.132;2023-04-08T00:22:37;8.13;;;6.60;;
76566;SDS011;65428;53.194;6.132;2023-04-08T00:25:03;9.60;;;7.77;;
76566;SDS011;65428;53.194;6.132;2023-04-08T00:27:33;9.75;;;7.75;;
76566;SDS011;65428;53.194;6.132;2023-04-08T00:29:59;8.45;;;7.43;;
76566;SDS011;65428;53.194;6.132;2023-04-08T00:32:25;8.23;;;7.03;;
76566;SDS011;65428;53.194;6.132;2023-04-08T00:34:52;8.67;;;6.97;;
76566;SDS011;65428;53.194;6.132;2023-04-08T00:37:18;9.27;;;7.80;;
76566;SDS011;65428;53.194;6.132;2023-04-08T00:39:43;9.07;;;7.80;;
76566;SDS011;65428;53.194;6.132;2023-04-08T00:42:09;10.57;;;8.45;;
76566;SDS011;65428;53.194;6.132;2023-04-08T00:44:35;9.63;;;7.82;;
76566;SDS011;65428;53.194;6.132;2023-04-08T00:47:01;10.93;;;8.20;;
76566;SDS011;65428;53.194;6.132;2023-04-08T00:49:29;9.90;;;8.73;;
76566;SDS011;65428;53.194;6.132;2023-04-08T00:51:55;16.80;;;12.52;;
76566;SDS011;65428;53.194;6.132;2023-04-08T00:54:22;14.05;;;12.52;;
76566;SDS011;65428;53.194;6.132;2023-04-08T00:56:48;13.43;;;11.48;;
76566;SDS011;65428;53.194;6.132;2023-04-08T00:59:15;14.07;;;11.23;;
76566;SDS011;65428;53.194;6.132;2023-04-08T01:01:43;13.50;;;11.10;;
76566;SDS011;65428;53.194;6.132;2023-04-08T01:04:24;12.40;;;10.73;;
76566;SDS011;65428;53.194;6.132;2023-04-08T01:09:37;13.57;;;11.93;;
76566;SDS011;65428;53.194;6.132;2023-04-08T01:12:04;12.80;;;11.43;;
76566;SDS011;65428;53.194;6.132;2023-04-08T01:14:34;16.60;;;14.13;;
76566;SDS011;65428;53.194;6.132;2023-04-08T01:17:16;18.50;;;14.95;;
76566;SDS011;65428;53.194;6.132;2023-04-08T01:19:45;14.52;;;12.40;;
76566;SDS011;65428;53.194;6.132;2023-04-08T01:24:45;15.98;;;14.20;;
76566;SDS011;65428;53.194;6.132;2023-04-08T01:27:14;18.48;;;15.40;;
76566;SDS011;65428;53.194;6.132;2023-04-08T01:29:41;19.60;;;16.13;;
76566;SDS011;65428;53.194;6.132;2023-04-08T01:32:11;17.65;;;14.95;;
76566;SDS011;65428;53.194;6.132;2023-04-08T01:34:38;18.25;;;15.10;;
76566;SDS011;65428;53.194;6.132;2023-04-08T01:37:05;17.98;;;15.57;;
76566;SDS011;65428;53.194;6.132;2023-04-08T01:39:35;19.27;;;16.10;;
76566;SDS011;65428;53.194;6.132;2023-04-08T01:42:02;18.63;;;16.05;;
76566;SDS011;65428;53.194;6.132;2023-04-08T01:44:28;20.92;;;17.08;;
76566;SDS011;65428;53.194;6.132;2023-04-08T01:46:54;22.00;;;17.50;;
76566;SDS011;65428;53.194;6.132;2023-04-08T01:49:21;23.38;;;18.85;;
76566;SDS011;65428;53.194;6.132;2023-04-08T01:51:48;24.15;;;19.52;;
76566;SDS011;65428;53.194;6.132;2023-04-08T01:54:25;22.40;;;18.67;;
76566;SDS011;65428;53.194;6.132;2023-04-08T01:56:50;22.75;;;19.25;;
76566;SDS011;65428;53.194;6.132;2023-04-08T01:59:20;21.30;;;18.63;;
76566;SDS011;65428;53.194;6.132;2023-04-08T02:01:48;22.65;;;18.77;;
76566;SDS011;65428;53.194;6.132;2023-04-08T02:04:18;22.75;;;20.23;;
76566;SDS011;65428;53.194;6.132;2023-04-08T02:06:47;28.52;;;23.02;;
76566;SDS011;65428;53.194;6.132;2023-04-08T02:09:14;25.73;;;21.98;;
76566;SDS011;65428;53.194;6.132;2023-04-08T02:11:39;28.27;;;22.70;;
76566;SDS011;65428;53.194;6.132;2023-04-08T02:14:05;28.13;;;23.35;;
76566;SDS011;65428;53.194;6.132;2023-04-08T02:16:39;26.88;;;21.95;;
76566;SDS011;65428;53.194;6.132;2023-04-08T02:19:23;25.85;;;21.92;;
76566;SDS011;65428;53.194;6.132;2023-04-08T02:22:04;30.42;;;23.08;;
76566;SDS011;65428;53.194;6.132;2023-04-08T02:24:36;25.90;;;22.13;;
76566;SDS011;65428;53.194;6.132;2023-04-08T02:27:03;31.80;;;25.50;;
76566;SDS011;65428;53.194;6.132;2023-04-08T02:29:30;25.97;;;21.77;;
76566;SDS011;65428;53.194;6.132;2023-04-08T02:31:57;30.00;;;23.73;;
76566;SDS011;65428;53.194;6.132;2023-04-08T02:34:25;28.57;;;23.50;;
76566;SDS011;65428;53.194;6.132;2023-04-08T02:36:51;28.90;;;22.98;;
76566;SDS011;65428;53.194;6.132;2023-04-08T02:39:17;34.40;;;26.27;;
76566;SDS011;65428;53.194;6.132;2023-04-08T02:41:43;38.60;;;27.97;;
76566;SDS011;65428;53.194;6.132;2023-04-08T02:44:09;38.33;;;28.23;;
76566;SDS011;65428;53.194;6.132;2023-04-08T02:46:35;31.10;;;24.48;;
76566;SDS011;65428;53.194;6.132;2023-04-08T02:49:02;33.40;;;25.48;;
76566;SDS011;65428;53.194;6.132;2023-04-08T02:51:28;43.30;;;31.77;;
76566;SDS011;65428;53.194;6.132;2023-04-08T02:53:54;36.53;;;28.63;;
76566;SDS011;65428;53.194;6.132;2023-04-08T02:56:19;42.00;;;30.07;;
76566;SDS011;65428;53.194;6.132;2023-04-08T02:58:45;38.13;;;28.20;;
76566;SDS011;65428;53.194;6.132;2023-04-08T03:01:11;45.43;;;31.90;;
76566;SDS011;65428;53.194;6.132;2023-04-08T03:03:37;40.63;;;29.90;;
76566;SDS011;65428;53.194;6.132;2023-04-08T03:06:02;45.38;;;32.47;;
76566;SDS011;65428;53.194;6.132;2023-04-08T03:08:28;52.15;;;35.70;;
76566;SDS011;65428;53.194;6.132;2023-04-08T03:10:54;48.57;;;31.97;;
76566;SDS011;65428;53.194;6.132;2023-04-08T03:13:19;54.73;;;35.40;;
76566;SDS011;65428;53.194;6.132;2023-04-08T03:15:45;57.60;;;37.08;;
76566;SDS011;65428;53.194;6.132;2023-04-08T03:18:11;57.40;;;37.17;;
76566;SDS011;65428;53.194;6.132;2023-04-08T03:20:36;57.13;;;35.77;;
76566;SDS011;65428;53.194;6.132;2023-04-08T03:23:02;45.17;;;32.23;;
76566;SDS011;65428;53.194;6.132;2023-04-08T03:25:27;51.35;;;34.33;;
76566;SDS011;65428;53.194;6.132;2023-04-08T03:27:54;40.85;;;30.27;;
76566;SDS011;65428;53.194;6.132;2023-04-08T03:30:20;39.10;;;30.02;;
76566;SDS011;65428;53.194;6.132;2023-04-08T03:32:46;38.10;;;30.33;;
76566;SDS011;65428;53.194;6.132;2023-04-08T03:35:11;44.30;;;31.90;;
76566;SDS011;65428;53.194;6.132;2023-04-08T03:37:37;43.60;;;32.57;;
76566;SDS011;65428;53.194;6.132;2023-04-08T03:40:03;47.00;;;33.75;;
76566;SDS011;65428;53.194;6.132;2023-04-08T03:42:29;43.63;;;32.07;;
76566;SDS011;65428;53.194;6.132;2023-04-08T03:44:55;43.00;;;32.27;;
76566;SDS011;65428;53.194;6.132;2023-04-08T03:47:21;45.67;;;33.65;;
76566;SDS011;65428;53.194;6.132;2023-04-08T03:49:47;47.30;;;33.80;;
76566;SDS011;65428;53.194;6.132;2023-04-08T03:52:12;53.63;;;35.53;;
76566;SDS011;65428;53.194;6.132;2023-04-08T03:54:38;44.45;;;32.75;;
76566;SDS011;65428;53.194;6.132;2023-04-08T03:57:03;37.30;;;29.92;;
76566;SDS011;65428;53.194;6.132;2023-04-08T03:59:29;47.83;;;33.70;;
76566;SDS011;65428;53.194;6.132;2023-04-08T04:01:55;47.90;;;33.53;;
76566;SDS011;65428;53.194;6.132;2023-04-08T04:04:21;41.55;;;31.75;;
76566;SDS011;65428;53.194;6.132;2023-04-08T04:06:47;42.88;;;32.28;;
76566;SDS011;65428;53.194;6.132;2023-04-08T04:09:13;48.13;;;33.53;;
76566;SDS011;65428;53.194;6.132;2023-04-08T04:11:40;40.63;;;30.85;;
76566;SDS011;65428;53.194;6.132;2023-04-08T04:14:06;64.80;;;38.50;;
76566;SDS011;65428;53.194;6.132;2023-04-08T04:16:33;73.40;;;41.60;;
76566;SDS011;65428;53.194;6.132;2023-04-08T04:18:58;87.95;;;47.38;;
76566;SDS011;65428;53.194;6.132;2023-04-08T04:21:24;83.80;;;45.47;;
76566;SDS011;65428;53.194;6.132;2023-04-08T04:23:51;85.47;;;44.35;;
76566;SDS011;65428;53.194;6.132;2023-04-08T04:26:16;55.67;;;36.33;;
76566;SDS011;65428;53.194;6.132;2023-04-08T04:28:42;57.03;;;38.58;;
76566;SDS011;65428;53.194;6.132;2023-04-08T04:31:16;55.23;;;36.67;;
76566;SDS011;65428;53.194;6.132;2023-04-08T04:33:46;54.33;;;37.15;;
76566;SDS011;65428;53.194;6.132;2023-04-08T04:36:12;62.35;;;38.47;;
76566;SDS011;65428;53.194;6.132;2023-04-08T04:38:38;77.55;;;43.83;;
76566;SDS011;65428;53.194;6.132;2023-04-08T04:41:04;77.00;;;41.87;;
76566;SDS011;65428;53.194;6.132;2023-04-08T04:43:30;56.15;;;37.10;;
76566;SDS011;65428;53.194;6.132;2023-04-08T04:45:55;64.33;;;38.20;;
76566;SDS011;65428;53.194;6.132;2023-04-08T04:48:21;71.43;;;43.45;;
76566;SDS011;65428;53.194;6.132;2023-04-08T04:50:57;58.03;;;37.67;;
76566;SDS011;65428;53.194;6.132;2023-04-08T04:53:25;57.10;;;38.25;;
76566;SDS011;65428;53.194;6.132;2023-04-08T04:55:51;84.65;;;45.03;;
76566;SDS011;65428;53.194;6.132;2023-04-08T04:58:16;64.38;;;40.58;;
76566;SDS011;65428;53.194;6.132;2023-04-08T05:00:43;58.55;;;38.03;;
76566;SDS011;65428;53.194;6.132;2023-04-08T05:03:09;58.13;;;38.90;;
76566;SDS011;65428;53.194;6.132;2023-04-08T05:05:35;54.08;;;37.38;;
76566;SDS011;65428;53.194;6.132;2023-04-08T05:08:13;86.40;;;44.40;;
76566;SDS011;65428;53.194;6.132;2023-04-08T05:10:45;59.35;;;39.33;;
76566;SDS011;65428;53.194;6.132;2023-04-08T05:13:11;85.65;;;44.42;;
76566;SDS011;65428;53.194;6.132;2023-04-08T05:15:39;75.53;;;43.72;;
76566;SDS011;65428;53.194;6.132;2023-04-08T05:18:14;56.60;;;39.05;;
76566;SDS011;65428;53.194;6.132;2023-04-08T05:20:40;67.03;;;42.30;;
76566;SDS011;65428;53.194;6.132;2023-04-08T05:23:24;65.00;;;42.53;;
76566;SDS011;65428;53.194;6.132;2023-04-08T05:25:50;72.90;;;44.35;;
76566;SDS011;65428;53.194;6.132;2023-04-08T05:28:16;87.45;;;47.50;;
76566;SDS011;65428;53.194;6.132;2023-04-08T05:30:41;72.68;;;44.15;;
76566;SDS011;65428;53.194;6.132;2023-04-08T05:33:07;75.53;;;44.53;;
76566;SDS011;65428;53.194;6.132;2023-04-08T05:35:32;65.13;;;42.03;;
76566;SDS011;65428;53.194;6.132;2023-04-08T05:38:00;78.90;;;45.45;;
76566;SDS011;65428;53.194;6.132;2023-04-08T05:40:25;86.70;;;45.28;;
76566;SDS011;65428;53.194;6.132;2023-04-08T05:42:51;93.70;;;49.35;;
76566;SDS011;65428;53.194;6.132;2023-04-08T05:45:17;85.77;;;47.93;;
76566;SDS011;65428;53.194;6.132;2023-04-08T05:47:43;59.17;;;40.95;;
76566;SDS011;65428;53.194;6.132;2023-04-08T05:50:09;71.77;;;44.77;;
76566;SDS011;65428;53.194;6.132;2023-04-08T05:52:35;64.55;;;43.60;;
76566;SDS011;65428;53.194;6.132;2023-04-08T05:55:01;71.25;;;45.80;;
76566;SDS011;65428;53.194;6.132;2023-04-08T05:57:26;67.83;;;44.17;;
76566;SDS011;65428;53.194;6.132;2023-04-08T05:59:52;67.17;;;43.90;;
76566;SDS011;65428;53.194;6.132;2023-04-08T06:02:18;68.75;;;45.33;;
76566;SDS011;65428;53.194;6.132;2023-04-08T06:04:43;67.55;;;44.17;;
76566;SDS011;65428;53.194;6.132;2023-04-08T06:07:09;68.23;;;44.87;;
76566;SDS011;65428;53.194;6.132;2023-04-08T06:09:34;67.67;;;45.47;;
76566;SDS011;65428;53.194;6.132;2023-04-08T06:12:01;65.03;;;44.47;;
76566;SDS011;65428;53.194;6.132;2023-04-08T06:14:27;65.85;;;44.60;;
76566;SDS011;65428;53.194;6.132;2023-04-08T06:16:52;76.33;;;46.67;;
76566;SDS011;65428;53.194;6.132;2023-04-08T06:19:21;88.82;;;50.22;;
76566;SDS011;65428;53.194;6.132;2023-04-08T06:21:46;76.28;;;46.25;;
76566;SDS011;65428;53.194;6.132;2023-04-08T06:24:12;59.40;;;42.22;;
76566;SDS011;65428;53.194;6.132;2023-04-08T06:26:38;67.37;;;44.07;;
76566;SDS011;65428;53.194;6.132;2023-04-08T06:29:03;77.93;;;45.63;;
76566;SDS011;65428;53.194;6.132;2023-04-08T06:31:29;71.47;;;45.20;;
76566;SDS011;65428;53.194;6.132;2023-04-08T06:33:55;65.57;;;44.20;;
76566;SDS011;65428;53.194;6.132;2023-04-08T06:36:21;60.78;;;41.35;;
76566;SDS011;65428;53.194;6.132;2023-04-08T06:38:46;58.60;;;41.17;;
76566;SDS011;65428;53.194;6.132;2023-04-08T06:41:12;60.87;;;42.83;;
76566;SDS011;65428;53.194;6.132;2023-04-08T06:43:38;65.10;;;44.50;;
76566;SDS011;65428;53.194;6.132;2023-04-08T06:46:03;66.88;;;44.42;;
76566;SDS011;65428;53.194;6.132;2023-04-08T06:48:29;73.93;;;45.08;;
76566;SDS011;65428;53.194;6.132;2023-04-08T06:50:55;65.53;;;44.33;;
76566;SDS011;65428;53.194;6.132;2023-04-08T06:53:22;63.83;;;42.85;;
76566;SDS011;65428;53.194;6.132;2023-04-08T06:55:48;63.60;;;42.77;;
76566;SDS011;65428;53.194;6.132;2023-04-08T06:58:14;71.93;;;45.13;;
76566;SDS011;65428;53.194;6.132;2023-04-08T07:00:40;62.77;;;43.37;;
76566;SDS011;65428;53.194;6.132;2023-04-08T07:03:06;59.22;;;41.30;;
76566;SDS011;65428;53.194;6.132;2023-04-08T07:05:34;55.25;;;39.08;;
76566;SDS011;65428;53.194;6.132;2023-04-08T07:08:01;61.60;;;41.47;;
76566;SDS011;65428;53.194;6.132;2023-04-08T07:10:26;57.38;;;40.15;;
76566;SDS011;65428;53.194;6.132;2023-04-08T07:12:53;49.95;;;36.28;;
76566;SDS011;65428;53.194;6.132;2023-04-08T07:15:28;47.73;;;37.23;;
76566;SDS011;65428;53.194;6.132;2023-04-08T07:17:53;50.42;;;37.70;;
76566;SDS011;65428;53.194;6.132;2023-04-08T07:20:22;44.97;;;35.80;;
76566;SDS011;65428;53.194;6.132;2023-04-08T07:22:47;42.25;;;34.90;;
76566;SDS011;65428;53.194;6.132;2023-04-08T07:25:13;40.70;;;34.67;;
76566;SDS011;65428;53.194;6.132;2023-04-08T07:28:24;38.65;;;31.27;;
76566;SDS011;65428;53.194;6.132;2023-04-08T07:30:52;38.85;;;33.38;;
76566;SDS011;65428;53.194;6.132;2023-04-08T07:33:43;38.95;;;32.30;;
76566;SDS011;65428;53.194;6.132;2023-04-08T07:36:09;39.47;;;32.70;;
76566;SDS011;65428;53.194;6.132;2023-04-08T07:38:45;38.40;;;32.10;;
76566;SDS011;65428;53.194;6.132;2023-04-08T07:41:14;37.25;;;31.85;;
76566;SDS011;65428;53.194;6.132;2023-04-08T07:43:39;38.03;;;31.47;;
76566;SDS011;65428;53.194;6.132;2023-04-08T07:46:10;36.85;;;30.42;;
76566;SDS011;65428;53.194;6.132;2023-04-08T07:48:36;32.57;;;29.03;;
76566;SDS011;65428;53.194;6.132;2023-04-08T07:51:02;35.50;;;30.17;;
76566;SDS011;65428;53.194;6.132;2023-04-08T07:53:42;37.05;;;31.15;;
76566;SDS011;65428;53.194;6.132;2023-04-08T07:56:47;31.17;;;27.38;;
76566;SDS011;65428;53.194;6.132;2023-04-08T07:59:18;30.73;;;26.88;;
76566;SDS011;65428;53.194;6.132;2023-04-08T08:05:14;28.42;;;25.33;;
76566;SDS011;65428;53.194;6.132;2023-04-08T08:07:52;27.38;;;24.45;;
76566;SDS011;65428;53.194;6.132;2023-04-08T08:10:26;25.63;;;23.00;;
76566;SDS011;65428;53.194;6.132;2023-04-08T08:13:12;25.13;;;22.53;;
76566;SDS011;65428;53.194;6.132;2023-04-08T08:15:41;23.50;;;21.00;;
76566;SDS011;65428;53.194;6.132;2023-04-08T08:18:09;19.02;;;17.00;;
76566;SDS011;65428;53.194;6.132;2023-04-08T08:20:34;18.77;;;16.90;;
76566;SDS011;65428;53.194;6.132;2023-04-08T08:23:00;16.88;;;15.18;;
76566;SDS011;65428;53.194;6.132;2023-04-08T08:25:33;15.77;;;14.27;;
76566;SDS011;65428;53.194;6.132;2023-04-08T08:28:01;13.68;;;12.27;;
76566;SDS011;65428;53.194;6.132;2023-04-08T08:33:11;15.23;;;13.73;;
76566;SDS011;65428;53.194;6.132;2023-04-08T08:35:49;14.80;;;13.30;;
76566;SDS011;65428;53.194;6.132;2023-04-08T08:42:24;13.98;;;12.68;;
76566;SDS011;65428;53.194;6.132;2023-04-08T08:52:37;12.63;;;11.43;;
76566;SDS011;65428;53.194;6.132;2023-04-08T08:55:05;12.13;;;10.93;;
76566;SDS011;65428;53.194;6.132;2023-04-08T08:57:33;13.23;;;12.02;;
76566;SDS011;65428;53.194;6.132;2023-04-08T09:00:02;13.87;;;12.57;;
76566;SDS011;65428;53.194;6.132;2023-04-08T09:03:10;13.88;;;12.48;;
76566;SDS011;65428;53.194;6.132;2023-04-08T09:09:16;13.97;;;12.67;;
76566;SDS011;65428;53.194;6.132;2023-04-08T09:11:16;14.45;;;13.00;;
76566;SDS011;65428;53.194;6.132;2023-04-08T09:13:51;14.88;;;13.38;;
76566;SDS011;65428;53.194;6.132;2023-04-08T09:16:19;14.88;;;13.38;;
76566;SDS011;65428;53.194;6.132;2023-04-08T09:19:06;14.70;;;13.20;;
76566;SDS011;65428;53.194;6.132;2023-04-08T09:21:40;14.20;;;12.77;;
76566;SDS011;65428;53.194;6.132;2023-04-08T09:24:40;15.98;;;14.27;;
76566;SDS011;65428;53.194;6.132;2023-04-08T09:27:06;14.50;;;13.00;;
76566;SDS011;65428;53.194;6.132;2023-04-08T09:29:32;14.70;;;13.30;;
76566;SDS011;65428;53.194;6.132;2023-04-08T09:31:59;14.93;;;13.45;;
76566;SDS011;65428;53.194;6.132;2023-04-08T09:34:30;14.73;;;13.27;;
76566;SDS011;65428;53.194;6.132;2023-04-08T09:37:01;15.60;;;14.00;;
76566;SDS011;65428;53.194;6.132;2023-04-08T09:39:27;14.73;;;13.25;;
76566;SDS011;65428;53.194;6.132;2023-04-08T09:41:56;15.00;;;13.40;;
76566;SDS011;65428;53.194;6.132;2023-04-08T09:44:25;14.70;;;13.20;;
76566;SDS011;65428;53.194;6.132;2023-04-08T09:46:55;14.40;;;13.00;;
76566;SDS011;65428;53.194;6.132;2023-04-08T09:49:28;15.57;;;14.05;;
76566;SDS011;65428;53.194;6.132;2023-04-08T09:55:11;15.93;;;14.32;;
76566;SDS011;65428;53.194;6.132;2023-04-08T09:57:36;16.25;;;14.65;;
76566;SDS011;65428;53.194;6.132;2023-04-08T10:00:12;15.80;;;14.05;;
76566;SDS011;65428;53.194;6.132;2023-04-08T10:05:13;16.03;;;14.43;;
76566;SDS011;65428;53.194;6.132;2023-04-08T10:07:44;16.15;;;14.55;;
76566;SDS011;65428;53.194;6.132;2023-04-08T10:10:35;15.63;;;14.10;;
76566;SDS011;65428;53.194;6.132;2023-04-08T10:13:04;15.93;;;14.32;;
76566;SDS011;65428;53.194;6.132;2023-04-08T10:15:31;15.05;;;13.55;;
76566;SDS011;65428;53.194;6.132;2023-04-08T10:23:16;15.87;;;14.20;;
76566;SDS011;65428;53.194;6.132;2023-04-08T10:25:56;15.57;;;14.07;;
76566;SDS011;65428;53.194;6.132;2023-04-08T10:31:26;16.27;;;14.68;;
76566;SDS011;65428;53.194;6.132;2023-04-08T10:33:51;15.83;;;14.33;;
76566;SDS011;65428;53.194;6.132;2023-04-08T10:36:17;16.53;;;14.83;;
76566;SDS011;65428;53.194;6.132;2023-04-08T10:38:43;15.85;;;14.27;;
76566;SDS011;65428;53.194;6.132;2023-04-08T10:41:11;16.85;;;14.55;;
76566;SDS011;65428;53.194;6.132;2023-04-08T10:43:45;15.53;;;13.93;;
76566;SDS011;65428;53.194;6.132;2023-04-08T10:46:11;16.00;;;14.40;;
76566;SDS011;65428;53.194;6.132;2023-04-08T10:48:37;15.53;;;13.93;;
76566;SDS011;65428;53.194;6.132;2023-04-08T10:51:03;15.30;;;13.73;;
76566;SDS011;65428;53.194;6.132;2023-04-08T10:53:35;16.05;;;14.45;;
76566;SDS011;65428;53.194;6.132;2023-04-08T10:56:13;16.45;;;14.75;;
76566;SDS011;65428;53.194;6.132;2023-04-08T10:58:52;14.70;;;13.20;;
76566;SDS011;65428;53.194;6.132;2023-04-08T11:01:20;13.93;;;12.63;;
76566;SDS011;65428;53.194;6.132;2023-04-08T11:03:49;14.98;;;13.48;;
76566;SDS011;65428;53.194;6.132;2023-04-08T11:06:35;15.35;;;13.85;;
76566;SDS011;65428;53.194;6.132;2023-04-08T11:09:02;16.55;;;14.85;;
76566;SDS011;65428;53.194;6.132;2023-04-08T11:11:30;16.77;;;15.07;;
76566;SDS011;65428;53.194;6.132;2023-04-08T11:13:56;16.92;;;15.15;;
76566;SDS011;65428;53.194;6.132;2023-04-08T11:16:22;17.25;;;15.55;;
76566;SDS011;65428;53.194;6.132;2023-04-08T11:18:50;17.00;;;15.20;;
76566;SDS011;65428;53.194;6.132;2023-04-08T11:21:30;17.67;;;15.77;;
76566;SDS011;65428;53.194;6.132;2023-04-08T11:23:59;16.97;;;15.20;;
76566;SDS011;65428;53.194;6.132;2023-04-08T11:26:25;17.37;;;15.60;;
76566;SDS011;65428;53.194;6.132;2023-04-08T11:29:00;17.45;;;15.68;;
76566;SDS011;65428;53.194;6.132;2023-04-08T11:31:26;18.13;;;16.20;;
76566;SDS011;65428;53.194;6.132;2023-04-08T11:33:55;18.20;;;16.30;;
76566;SDS011;65428;53.194;6.132;2023-04-08T11:36:21;18.42;;;16.42;;
76566;SDS011;65428;53.194;6.132;2023-04-08T11:38:49;19.15;;;16.90;;
76566;SDS011;65428;53.194;6.132;2023-04-08T11:41:17;19.58;;;17.45;;
76566;SDS011;65428;53.194;6.132;2023-04-08T11:43:50;20.67;;;17.38;;
76566;SDS011;65428;53.194;6.132;2023-04-08T11:46:20;20.93;;;16.97;;
76566;SDS011;65428;53.194;6.132;2023-04-08T11:49:04;23.75;;;19.13;;
76566;SDS011;65428;53.194;6.132;2023-04-08T11:51:31;23.47;;;19.60;;
76566;SDS011;65428;53.194;6.132;2023-04-08T11:54:04;23.67;;;20.20;;
76566;SDS011;65428;53.194;6.132;2023-04-08T11:56:34;25.38;;;20.48;;
76566;SDS011;65428;53.194;6.132;2023-04-08T11:59:09;27.83;;;22.30;;
76566;SDS011;65428;53.194;6.132;2023-04-08T12:01:35;27.70;;;23.10;;
76566;SDS011;65428;53.194;6.132;2023-04-08T12:04:04;26.98;;;22.13;;
76566;SDS011;65428;53.194;6.132;2023-04-08T12:06:30;27.73;;;23.03;;
76566;SDS011;65428;53.194;6.132;2023-04-08T12:09:02;25.67;;;21.83;;
76566;SDS011;65428;53.194;6.132;2023-04-08T12:11:28;24.10;;;21.33;;
76566;SDS011;65428;53.194;6.132;2023-04-08T12:13:57;25.83;;;21.88;;
76566;SDS011;65428;53.194;6.132;2023-04-08T12:16:23;23.60;;;20.23;;
76566;SDS011;65428;53.194;6.132;2023-04-08T12:18:51;23.80;;;21.15;;
76566;SDS011;65428;53.194;6.132;2023-04-08T12:21:17;25.38;;;20.63;;
76566;SDS011;65428;53.194;6.132;2023-04-08T12:23:48;24.47;;;21.33;;
76566;SDS011;65428;53.194;6.132;2023-04-08T12:26:13;23.65;;;21.08;;
76566;SDS011;65428;53.194;6.132;2023-04-08T12:28:41;24.05;;;21.15;;
76566;SDS011;65428;53.194;6.132;2023-04-08T12:31:07;24.60;;;21.10;;
76566;SDS011;65428;53.194;6.132;2023-04-08T12:33:33;22.80;;;20.40;;
76566;SDS011;65428;53.194;6.132;2023-04-08T12:35:58;24.80;;;21.27;;
76566;SDS011;65428;53.194;6.132;2023-04-08T12:38:24;25.02;;;22.33;;
76566;SDS011;65428;53.194;6.132;2023-04-08T12:40:51;22.98;;;20.48;;
76566;SDS011;65428;53.194;6.132;2023-04-08T12:43:17;23.05;;;20.35;;
76566;SDS011;65428;53.194;6.132;2023-04-08T12:45:43;23.80;;;21.30;;
76566;SDS011;65428;53.194;6.132;2023-04-08T12:48:09;26.95;;;22.00;;
76566;SDS011;65428;53.194;6.132;2023-04-08T12:50:34;26.33;;;21.25;;
76566;SDS011;65428;53.194;6.132;2023-04-08T12:53:00;26.17;;;22.42;;
76566;SDS011;65428;53.194;6.132;2023-04-08T12:55:26;25.45;;;21.88;;
76566;SDS011;65428;53.194;6.132;2023-04-08T12:57:52;28.13;;;22.70;;
76566;SDS011;65428;53.194;6.132;2023-04-08T13:00:18;28.13;;;23.23;;
76566;SDS011;65428;53.194;6.132;2023-04-08T13:02:44;27.15;;;23.00;;
76566;SDS011;65428;53.194;6.132;2023-04-08T13:05:10;25.50;;;21.85;;
76566;SDS011;65428;53.194;6.132;2023-04-08T13:07:36;25.80;;;22.10;;
76566;SDS011;65428;53.194;6.132;2023-04-08T13:10:02;23.87;;;21.37;;
76566;SDS011;65428;53.194;6.132;2023-04-08T13:12:28;24.50;;;21.37;;
76566;SDS011;65428;53.194;6.132;2023-04-08T13:14:54;27.60;;;21.93;;
76566;SDS011;65428;53.194;6.132;2023-04-08T13:17:20;25.27;;;20.85;;
76566;SDS011;65428;53.194;6.132;2023-04-08T13:19:45;24.75;;;21.65;;
76566;SDS011;65428;53.194;6.132;2023-04-08T13:22:14;23.90;;;20.83;;
76566;SDS011;65428;53.194;6.132;2023-04-08T13:24:40;22.33;;;19.98;;
76566;SDS011;65428;53.194;6.132;2023-04-08T13:27:06;22.98;;;18.42;;
76566;SDS011;65428;53.194;6.132;2023-04-08T13:29:32;21.60;;;18.30;;
76566;SDS011;65428;53.194;6.132;2023-04-08T13:31:58;20.37;;;18.17;;
76566;SDS011;65428;53.194;6.132;2023-04-08T13:34:25;21.80;;;18.92;;
76566;SDS011;65428;53.194;6.132;2023-04-08T13:36:51;22.75;;;18.83;;
76566;SDS011;65428;53.194;6.132;2023-04-08T13:39:17;21.30;;;19.03;;
76566;SDS011;65428;53.194;6.132;2023-04-08T13:41:42;20.88;;;18.33;;
76566;SDS011;65428;53.194;6.132;2023-04-08T13:44:08;20.02;;;17.83;;
76566;SDS011;65428;53.194;6.132;2023-04-08T13:46:40;20.27;;;18.17;;
76566;SDS011;65428;53.194;6.132;2023-04-08T13:49:06;20.10;;;18.00;;
76566;SDS011;65428;53.194;6.132;2023-04-08T13:51:35;18.40;;;15.95;;
76566;SDS011;65428;53.194;6.132;2023-04-08T13:54:00;20.08;;;16.73;;
76566;SDS011;65428;53.194;6.132;2023-04-08T13:56:26;18.75;;;16.40;;
76566;SDS011;65428;53.194;6.132;2023-04-08T13:58:52;18.85;;;16.17;;
76566;SDS011;65428;53.194;6.132;2023-04-08T14:01:17;17.53;;;15.47;;
76566;SDS011;65428;53.194;6.132;2023-04-08T14:03:43;16.87;;;15.17;;
76566;SDS011;65428;53.194;6.132;2023-04-08T14:06:12;17.83;;;15.90;;
76566;SDS011;65428;53.194;6.132;2023-04-08T14:08:41;18.57;;;16.63;;
76566;SDS011;65428;53.194;6.132;2023-04-08T14:11:06;19.67;;;17.27;;
76566;SDS011;65428;53.194;6.132;2023-04-08T14:13:32;18.87;;;16.87;;
76566;SDS011;65428;53.194;6.132;2023-04-08T14:15:58;18.52;;;16.63;;
76566;SDS011;65428;53.194;6.132;2023-04-08T14:18:33;18.52;;;16.63;;
76566;SDS011;65428;53.194;6.132;2023-04-08T14:21:01;18.75;;;16.17;;
76566;SDS011;65428;53.194;6.132;2023-04-08T14:23:28;16.50;;;14.52;;
76566;SDS011;65428;53.194;6.132;2023-04-08T14:25:59;16.67;;;14.83;;
76566;SDS011;65428;53.194;6.132;2023-04-08T14:28:28;17.17;;;15.00;;
76566;SDS011;65428;53.194;6.132;2023-04-08T14:30:54;15.93;;;14.23;;
76566;SDS011;65428;53.194;6.132;2023-04-08T14:33:20;15.52;;;13.23;;
76566;SDS011;65428;53.194;6.132;2023-04-08T14:35:46;15.50;;;13.90;;
76566;SDS011;65428;53.194;6.132;2023-04-08T14:38:11;15.20;;;13.60;;
76566;SDS011;65428;53.194;6.132;2023-04-08T14:40:37;15.17;;;13.63;;
76566;SDS011;65428;53.194;6.132;2023-04-08T14:43:03;14.88;;;12.70;;
76566;SDS011;65428;53.194;6.132;2023-04-08T14:45:29;15.43;;;13.10;;
76566;SDS011;65428;53.194;6.132;2023-04-08T14:47:55;13.98;;;12.55;;
76566;SDS011;65428;53.194;6.132;2023-04-08T14:50:21;14.82;;;12.90;;
76566;SDS011;65428;53.194;6.132;2023-04-08T14:52:47;14.30;;;12.75;;
76566;SDS011;65428;53.194;6.132;2023-04-08T14:55:13;14.00;;;12.60;;
76566;SDS011;65428;53.194;6.132;2023-04-08T14:57:38;14.80;;;13.30;;
76566;SDS011;65428;53.194;6.132;2023-04-08T15:00:13;15.20;;;13.48;;
76566;SDS011;65428;53.194;6.132;2023-04-08T15:02:39;14.93;;;13.43;;
76566;SDS011;65428;53.194;6.132;2023-04-08T15:05:07;13.80;;;12.50;;
76566;SDS011;65428;53.194;6.132;2023-04-08T15:07:33;23.05;;;17.00;;
76566;SDS011;65428;53.194;6.132;2023-04-08T15:09:59;14.55;;;13.02;;